sensor_id;sensor_type;location;lat;lon;timestamp;pressure;altitude;pressure_sealevel;temperature;humidity
29825;BME280;16713;52.916;12.834;2023-02-28T00:00:16;102555.22;;;-2.24;70.80
29825;BME280;16713;52.916;12.834;2023-02-28T00:02:43;102558.88;;;-2.18;70.30
29825;BME280;16713;52.916;12.834;2023-02-28T00:05:10;102554.91;;;-2.16;70.60
29825;BME280;16713;52.916;12.834;2023-02-28T00:07:37;102556.25;;;-2.43;70.68
29825;BME280;16713;52.916;12.834;2023-02-28T00:10:04;102554.34;;;-2.18;69.93
29825;BME280;16713;52.916;12.834;2023-02-28T00:12:32;102553.41;;;-2.30;70.31
29825;BME280;16713;52.916;12.834;2023-02-28T00:14:58;102556.53;;;-2.51;70.90
29825;BME280;16713;52.916;12.834;2023-02-28T00:17:25;102555.94;;;-2.35;70.55
29825;BME280;16713;52.916;12.834;2023-02-28T00:19:51;102557.53;;;-2.46;70.38
29825;BME280;16713;52.916;12.834;2023-02-28T00:24:47;102555.59;;;-2.57;70.30
29825;BME280;16713;52.916;12.834;2023-02-28T00:27:13;102552.06;;;-2.57;70.94
29825;BME280;16713;52.916;12.834;2023-02-28T00:29:40;102550.44;;;-2.58;71.32
29825;BME280;16713;52.916;12.834;2023-02-28T00:32:06;102549.97;;;-2.37;71.40
29825;BME280;16713;52.916;12.834;2023-02-28T00:34:33;102551.72;;;-2.43;70.60
29825;BME280;16713;52.916;12.834;2023-02-28T00:37:07;102548.56;;;-2.40;70.87
29825;BME280;16713;52.916;12.834;2023-02-28T00:39:35;102544.47;;;-2.42;70.84
29825;BME280;16713;52.916;12.834;2023-02-28T00:42:01;102550.00;;;-2.55;70.30
29825;BME280;16713;52.916;12.834;2023-02-28T00:44:28;102550.66;;;-2.60;70.46
29825;BME280;16713;52.916;12.834;2023-02-28T00:46:55;102552.09;;;-2.39;69.82
29825;BME280;16713;52.916;12.834;2023-02-28T00:49:22;102558.28;;;-2.57;70.00
29825;BME280;16713;52.916;12.834;2023-02-28T00:51:49;102553.09;;;-2.76;69.83
29825;BME280;16713;52.916;12.834;2023-02-28T00:54:16;102551.59;;;-2.72;70.77
29825;BME280;16713;52.916;12.834;2023-02-28T00:56:42;102544.97;;;-2.70;70.92
29825;BME280;16713;52.916;12.834;2023-02-28T00:59:08;102551.28;;;-2.82;70.59
29825;BME280;16713;52.916;12.834;2023-02-28T01:01:35;102552.75;;;-2.62;70.35
29825;BME280;16713;52.916;12.834;2023-02-28T01:04:01;102549.66;;;-2.65;70.20
29825;BME280;16713;52.916;12.834;2023-02-28T01:06:27;102546.75;;;-2.64;70.14
29825;BME280;16713;52.916;12.834;2023-02-28T01:08:54;102549.44;;;-2.64;70.71
29825;BME280;16713;52.916;12.834;2023-02-28T01:11:20;102552.50;;;-2.60;70.93
29825;BME280;16713;52.916;12.834;2023-02-28T01:13:47;102550.44;;;-2.58;70.40
29825;BME280;16713;52.916;12.834;2023-02-28T01:16:13;102549.00;;;-2.61;71.04
29825;BME280;16713;52.916;12.834;2023-02-28T01:18:39;102555.19;;;-2.60;70.10
29825;BME280;16713;52.916;12.834;2023-02-28T01:21:07;102556.69;;;-2.46;70.11
29825;BME280;16713;52.916;12.834;2023-02-28T01:23:33;102550.56;;;-2.53;70.72
29825;BME280;16713;52.916;12.834;2023-02-28T01:26:07;102550.78;;;-2.73;70.34
29825;BME280;16713;52.916;12.834;2023-02-28T01:28:33;102557.28;;;-2.62;70.99
29825;BME280;16713;52.916;12.834;2023-02-28T01:31:00;102549.28;;;-2.69;72.04
29825;BME280;16713;52.916;12.834;2023-02-28T01:33:26;102548.06;;;-2.91;73.00
29825;BME280;16713;52.916;12.834;2023-02-28T01:35:59;102561.91;;;-2.51;72.43
29825;BME280;16713;52.916;12.834;2023-02-28T01:38:26;102559.31;;;-2.21;71.38
29825;BME280;16713;52.916;12.834;2023-02-28T01:40:52;102556.84;;;-2.59;72.25
29825;BME280;16713;52.916;12.834;2023-02-28T01:43:20;102565.81;;;-2.11;71.71
29825;BME280;16713;52.916;12.834;2023-02-28T01:45:47;102559.09;;;-2.02;71.17
29825;BME280;16713;52.916;12.834;2023-02-28T01:48:14;102552.50;;;-1.88;70.89
29825;BME280;16713;52.916;12.834;2023-02-28T01:50:42;102562.66;;;-1.90;70.90
29825;BME280;16713;52.916;12.834;2023-02-28T01:53:14;102561.19;;;-2.04;70.05
29825;BME280;16713;52.916;12.834;2023-02-28T01:55:42;102557.97;;;-2.31;68.88
29825;BME280;16713;52.916;12.834;2023-02-28T01:58:11;102561.69;;;-2.50;69.63
29825;BME280;16713;52.916;12.834;2023-02-28T02:00:37;102568.34;;;-2.52;69.63
29825;BME280;16713;52.916;12.834;2023-02-28T02:03:06;102558.22;;;-2.75;70.48
29825;BME280;16713;52.916;12.834;2023-02-28T02:05:35;102560.03;;;-2.69;70.62
29825;BME280;16713;52.916;12.834;2023-02-28T02:08:04;102557.72;;;-2.65;70.01
29825;BME280;16713;52.916;12.834;2023-02-28T02:10:32;102554.94;;;-2.77;69.80
29825;BME280;16713;52.916;12.834;2023-02-28T02:17:56;102554.28;;;-2.72;69.65
29825;BME280;16713;52.916;12.834;2023-02-28T02:28:34;102546.22;;;-2.72;69.71
29825;BME280;16713;52.916;12.834;2023-02-28T02:39:03;102547.72;;;-2.76;70.56
29825;BME280;16713;52.916;12.834;2023-02-28T02:41:36;102545.25;;;-2.78;70.16
29825;BME280;16713;52.916;12.834;2023-02-28T02:46:51;102541.38;;;-3.31;72.08
29825;BME280;16713;52.916;12.834;2023-02-28T02:49:24;102538.38;;;-3.16;72.04
29825;BME280;16713;52.916;12.834;2023-02-28T02:51:52;102538.19;;;-3.21;72.80
29825;BME280;16713;52.916;12.834;2023-02-28T02:54:20;102537.59;;;-3.23;74.35
29825;BME280;16713;52.916;12.834;2023-02-28T02:56:48;102543.69;;;-3.10;74.08
29825;BME280;16713;52.916;12.834;2023-02-28T02:59:16;102538.00;;;-2.77;73.84
29825;BME280;16713;52.916;12.834;2023-02-28T03:01:51;102547.34;;;-2.80;73.05
29825;BME280;16713;52.916;12.834;2023-02-28T03:04:21;102546.28;;;-2.79;73.06
29825;BME280;16713;52.916;12.834;2023-02-28T03:06:48;102548.31;;;-2.56;73.55
29825;BME280;16713;52.916;12.834;2023-02-28T03:09:16;102551.13;;;-2.26;71.71
29825;BME280;16713;52.916;12.834;2023-02-28T03:11:42;102545.41;;;-2.73;72.71
29825;BME280;16713;52.916;12.834;2023-02-28T03:24:40;102558.94;;;-2.25;72.44
29825;BME280;16713;52.916;12.834;2023-02-28T03:27:11;102556.72;;;-2.28;72.34
29825;BME280;16713;52.916;12.834;2023-02-28T03:29:42;102566.94;;;-2.00;71.29
29825;BME280;16713;52.916;12.834;2023-02-28T03:32:13;102570.22;;;-2.16;70.94
29825;BME280;16713;52.916;12.834;2023-02-28T03:34:46;102559.19;;;-1.79;71.21
29825;BME280;16713;52.916;12.834;2023-02-28T03:37:16;102567.56;;;-1.87;70.83
29825;BME280;16713;52.916;12.834;2023-02-28T03:39:45;102567.13;;;-1.84;70.85
29825;BME280;16713;52.916;12.834;2023-02-28T03:42:20;102569.00;;;-1.84;70.82
29825;BME280;16713;52.916;12.834;2023-02-28T03:44:55;102559.19;;;-1.79;71.21
29825;BME280;16713;52.916;12.834;2023-02-28T03:47:25;102563.81;;;-1.68;70.64
29825;BME280;16713;52.916;12.834;2023-02-28T03:49:55;102569.00;;;-1.84;69.83
29825;BME280;16713;52.916;12.834;2023-02-28T03:52:23;102572.09;;;-2.17;68.70
29825;BME280;16713;52.916;12.834;2023-02-28T03:54:52;102566.47;;;-2.15;69.72
29825;BME280;16713;52.916;12.834;2023-02-28T04:00:09;102572.38;;;-2.43;68.75
29825;BME280;16713;52.916;12.834;2023-02-28T04:02:38;102578.06;;;-2.76;69.28
29825;BME280;16713;52.916;12.834;2023-02-28T04:05:06;102575.81;;;-2.79;68.63
29825;BME280;16713;52.916;12.834;2023-02-28T04:07:32;102572.84;;;-3.20;68.39
29825;BME280;16713;52.916;12.834;2023-02-28T04:09:59;102574.69;;;-3.20;68.66
29825;BME280;16713;52.916;12.834;2023-02-28T04:12:25;102569.88;;;-3.36;68.83
29825;BME280;16713;52.916;12.834;2023-02-28T04:14:52;102562.28;;;-3.46;68.75
29825;BME280;16713;52.916;12.834;2023-02-28T04:17:18;102563.25;;;-3.34;68.97
29825;BME280;16713;52.916;12.834;2023-02-28T04:19:45;102567.34;;;-3.31;69.02
29825;BME280;16713;52.916;12.834;2023-02-28T04:22:11;102570.97;;;-3.44;68.62
29825;BME280;16713;52.916;12.834;2023-02-28T04:24:37;102561.78;;;-3.30;68.11
29825;BME280;16713;52.916;12.834;2023-02-28T04:27:08;102569.09;;;-3.43;68.48
29825;BME280;16713;52.916;12.834;2023-02-28T04:29:34;102574.03;;;-3.40;68.66
29825;BME280;16713;52.916;12.834;2023-02-28T04:32:01;102572.63;;;-3.49;68.65
29825;BME280;16713;52.916;12.834;2023-02-28T04:34:29;102568.00;;;-3.67;68.98
29825;BME280;16713;52.916;12.834;2023-02-28T04:36:56;102566.31;;;-3.61;69.07
29825;BME280;16713;52.916;12.834;2023-02-28T04:39:37;102570.84;;;-3.62;69.30
29825;BME280;16713;52.916;12.834;2023-02-28T04:42:04;102574.31;;;-3.55;69.43
29825;BME280;16713;52.916;12.834;2023-02-28T04:44:30;102567.44;;;-3.75;69.76
29825;BME280;16713;52.916;12.834;2023-02-28T04:46:56;102568.47;;;-3.83;68.92
29825;BME280;16713;52.916;12.834;2023-02-28T04:49:22;102565.25;;;-3.92;69.56
29825;BME280;16713;52.916;12.834;2023-02-28T04:51:49;102567.31;;;-3.94;69.50
29825;BME280;16713;52.916;12.834;2023-02-28T04:54:16;102571.34;;;-4.22;69.37
29825;BME280;16713;52.916;12.834;2023-02-28T04:56:44;102574.41;;;-4.12;69.08
29825;BME280;16713;52.916;12.834;2023-02-28T04:59:10;102570.66;;;-4.05;69.45
29825;BME280;16713;52.916;12.834;2023-02-28T05:01:36;102573.09;;;-3.97;69.08
29825;BME280;16713;52.916;12.834;2023-02-28T05:04:03;102576.03;;;-4.11;69.41
29825;BME280;16713;52.916;12.834;2023-02-28T05:06:31;102574.03;;;-4.29;69.45
29825;BME280;16713;52.916;12.834;2023-02-28T05:08:58;102575.88;;;-4.23;69.37
29825;BME280;16713;52.916;12.834;2023-02-28T05:11:28;102575.84;;;-4.16;69.58
29825;BME280;16713;52.916;12.834;2023-02-28T05:13:56;102573.59;;;-4.19;69.67
29825;BME280;16713;52.916;12.834;2023-02-28T05:16:22;102573.63;;;-4.26;69.38
29825;BME280;16713;52.916;12.834;2023-02-28T05:18:48;102577.34;;;-4.27;69.33
29825;BME280;16713;52.916;12.834;2023-02-28T05:24:11;102583.94;;;-4.36;69.39
29825;BME280;16713;52.916;12.834;2023-02-28T05:26:39;102587.66;;;-4.37;69.33
29825;BME280;16713;52.916;12.834;2023-02-28T05:29:05;102597.31;;;-4.36;69.37
29825;BME280;16713;52.916;12.834;2023-02-28T05:31:32;102594.22;;;-4.33;69.66
29825;BME280;16713;52.916;12.834;2023-02-28T05:33:58;102589.47;;;-4.24;70.00
29825;BME280;16713;52.916;12.834;2023-02-28T05:36:25;102587.16;;;-4.08;70.25
29825;BME280;16713;52.916;12.834;2023-02-28T05:38:51;102589.66;;;-4.19;70.38
29825;BME280;16713;52.916;12.834;2023-02-28T05:41:18;102593.72;;;-4.04;70.31
29825;BME280;16713;52.916;12.834;2023-02-28T05:43:46;102592.47;;;-3.95;70.05
29825;BME280;16713;52.916;12.834;2023-02-28T05:46:13;102601.53;;;-3.96;70.66
29825;BME280;16713;52.916;12.834;2023-02-28T05:48:40;102598.78;;;-3.83;70.48
29825;BME280;16713;52.916;12.834;2023-02-28T05:51:07;102600.50;;;-3.95;69.96
29825;BME280;16713;52.916;12.834;2023-02-28T05:53:34;102594.13;;;-4.00;70.10
29825;BME280;16713;52.916;12.834;2023-02-28T05:56:01;102600.25;;;-3.80;70.81
29825;BME280;16713;52.916;12.834;2023-02-28T05:58:27;102600.53;;;-4.01;70.46
29825;BME280;16713;52.916;12.834;2023-02-28T06:00:57;102601.03;;;-3.73;70.95
29825;BME280;16713;52.916;12.834;2023-02-28T06:03:23;102601.41;;;-3.69;71.00
29825;BME280;16713;52.916;12.834;2023-02-28T06:05:50;102605.81;;;-3.44;70.49
29825;BME280;16713;52.916;12.834;2023-02-28T06:08:16;102608.75;;;-3.52;70.54
29825;BME280;16713;52.916;12.834;2023-02-28T06:10:43;102612.47;;;-3.53;71.01
29825;BME280;16713;52.916;12.834;2023-02-28T06:13:09;102615.00;;;-3.64;70.82
29825;BME280;16713;52.916;12.834;2023-02-28T06:15:35;102615.84;;;-3.64;69.93
29825;BME280;16713;52.916;12.834;2023-02-28T06:18:02;102604.97;;;-3.75;70.09
29825;BME280;16713;52.916;12.834;2023-02-28T06:20:28;102609.91;;;-3.79;70.75
29825;BME280;16713;52.916;12.834;2023-02-28T06:22:56;102610.88;;;-3.67;70.85
29825;BME280;16713;52.916;12.834;2023-02-28T06:25:25;102619.88;;;-3.48;71.34
29825;BME280;16713;52.916;12.834;2023-02-28T06:27:51;102612.44;;;-3.46;70.70
29825;BME280;16713;52.916;12.834;2023-02-28T06:30:18;102616.78;;;-3.52;70.95
29825;BME280;16713;52.916;12.834;2023-02-28T06:32:49;102625.69;;;-3.20;71.19
29825;BME280;16713;52.916;12.834;2023-02-28T06:35:16;102628.28;;;-3.38;70.46
29825;BME280;16713;52.916;12.834;2023-02-28T06:37:42;102622.81;;;-3.25;70.92
29825;BME280;16713;52.916;12.834;2023-02-28T06:40:10;102630.31;;;-3.03;71.38
29825;BME280;16713;52.916;12.834;2023-02-28T06:42:36;102635.09;;;-2.80;71.68
29825;BME280;16713;52.916;12.834;2023-02-28T06:45:03;102634.34;;;-3.18;72.07
29825;BME280;16713;52.916;12.834;2023-02-28T06:47:35;102633.25;;;-3.11;72.75
29825;BME280;16713;52.916;12.834;2023-02-28T06:50:02;102638.66;;;-3.17;72.41
29825;BME280;16713;52.916;12.834;2023-02-28T06:52:29;102641.47;;;-3.06;72.47
29825;BME280;16713;52.916;12.834;2023-02-28T06:54:55;102635.31;;;-3.06;72.93
29825;BME280;16713;52.916;12.834;2023-02-28T06:57:29;102636.47;;;-2.71;72.91
29825;BME280;16713;52.916;12.834;2023-02-28T07:00:00;102656.09;;;-2.46;72.62
29825;BME280;16713;52.916;12.834;2023-02-28T07:02:27;102646.38;;;-2.72;72.85
29825;BME280;16713;52.916;12.834;2023-02-28T07:04:53;102651.03;;;-2.36;72.62
29825;BME280;16713;52.916;12.834;2023-02-28T07:07:20;102652.50;;;-2.40;72.48
29825;BME280;16713;52.916;12.834;2023-02-28T07:09:46;102652.78;;;-2.23;72.43
29825;BME280;16713;52.916;12.834;2023-02-28T07:12:13;102665.41;;;-2.06;71.95
29825;BME280;16713;52.916;12.834;2023-02-28T07:14:39;102656.66;;;-2.01;71.91
29825;BME280;16713;52.916;12.834;2023-02-28T07:17:09;102665.25;;;-1.93;71.91
29825;BME280;16713;52.916;12.834;2023-02-28T07:19:38;102660.47;;;-2.09;72.61
29825;BME280;16713;52.916;12.834;2023-02-28T07:22:05;102663.31;;;-2.04;73.37
29825;BME280;16713;52.916;12.834;2023-02-28T07:24:31;102660.63;;;-1.68;72.41
29825;BME280;16713;52.916;12.834;2023-02-28T07:26:58;102658.78;;;-2.03;73.20
29825;BME280;16713;52.916;12.834;2023-02-28T07:29:25;102654.66;;;-1.70;73.17
29825;BME280;16713;52.916;12.834;2023-02-28T07:31:51;102658.91;;;-1.80;73.10
29825;BME280;16713;52.916;12.834;2023-02-28T07:34:19;102661.16;;;-1.59;73.00
29825;BME280;16713;52.916;12.834;2023-02-28T07:36:46;102666.88;;;-1.38;72.81
29825;BME280;16713;52.916;12.834;2023-02-28T07:39:12;102658.13;;;-1.33;72.27
29825;BME280;16713;52.916;12.834;2023-02-28T07:41:38;102662.47;;;-1.50;73.02
29825;BME280;16713;52.916;12.834;2023-02-28T07:44:10;102661.66;;;-1.51;73.41
29825;BME280;16713;52.916;12.834;2023-02-28T07:46:36;102670.38;;;-1.37;73.07
29825;BME280;16713;52.916;12.834;2023-02-28T07:49:03;102664.41;;;-1.39;73.92
29825;BME280;16713;52.916;12.834;2023-02-28T07:51:30;102672.91;;;-1.42;74.83
29825;BME280;16713;52.916;12.834;2023-02-28T07:53:57;102665.19;;;-1.21;74.06
29825;BME280;16713;52.916;12.834;2023-02-28T07:56:23;102670.03;;;-1.11;73.71
29825;BME280;16713;52.916;12.834;2023-02-28T07:58:50;102669.16;;;-1.23;74.51
29825;BME280;16713;52.916;12.834;2023-02-28T08:01:16;102670.84;;;-1.11;74.41
29825;BME280;16713;52.916;12.834;2023-02-28T08:03:43;102666.50;;;-1.12;74.33
29825;BME280;16713;52.916;12.834;2023-02-28T08:06:14;102662.34;;;-0.85;74.09
29825;BME280;16713;52.916;12.834;2023-02-28T08:08:42;102668.19;;;-0.46;73.77
29825;BME280;16713;52.916;12.834;2023-02-28T08:11:08;102663.59;;;-0.69;73.79
29825;BME280;16713;52.916;12.834;2023-02-28T08:13:34;102667.78;;;-0.73;75.27
29825;BME280;16713;52.916;12.834;2023-02-28T08:16:01;102662.53;;;-0.68;75.29
29825;BME280;16713;52.916;12.834;2023-02-28T08:18:27;102666.19;;;-0.51;74.88
29825;BME280;16713;52.916;12.834;2023-02-28T08:20:54;102665.16;;;-0.27;73.96
29825;BME280;16713;52.916;12.834;2023-02-28T08:23:20;102667.63;;;-0.25;73.68
29825;BME280;16713;52.916;12.834;2023-02-28T08:25:53;102667.25;;;-0.17;73.34
29825;BME280;16713;52.916;12.834;2023-02-28T08:28:20;102666.44;;;-0.06;72.91
29825;BME280;16713;52.916;12.834;2023-02-28T08:30:47;102663.50;;;-0.16;73.22
29825;BME280;16713;52.916;12.834;2023-02-28T08:33:13;102666.56;;;-0.01;73.47
29825;BME280;16713;52.916;12.834;2023-02-28T08:35:39;102664.41;;;0.12;72.87
29825;BME280;16713;52.916;12.834;2023-02-28T08:38:06;102672.72;;;0.11;72.92
29825;BME280;16713;52.916;12.834;2023-02-28T08:40:32;102672.63;;;0.06;73.70
29825;BME280;16713;52.916;12.834;2023-02-28T08:42:58;102679.09;;;0.05;73.28
29825;BME280;16713;52.916;12.834;2023-02-28T08:45:25;102677.53;;;0.20;73.66
29825;BME280;16713;52.916;12.834;2023-02-28T08:47:53;102681.28;;;0.31;73.26
29825;BME280;16713;52.916;12.834;2023-02-28T08:50:20;102682.06;;;0.31;74.07
29825;BME280;16713;52.916;12.834;2023-02-28T08:52:46;102681.72;;;0.39;74.15
29825;BME280;16713;52.916;12.834;2023-02-28T08:55:12;102681.47;;;0.41;73.06
29825;BME280;16713;52.916;12.834;2023-02-28T08:57:39;102686.19;;;0.45;72.91
29825;BME280;16713;52.916;12.834;2023-02-28T09:00:05;102679.91;;;0.56;72.90
29825;BME280;16713;52.916;12.834;2023-02-28T09:02:32;102692.06;;;0.71;72.64
29825;BME280;16713;52.916;12.834;2023-02-28T09:04:58;102692.91;;;0.71;71.90
29825;BME280;16713;52.916;12.834;2023-02-28T09:07:25;102688.31;;;0.72;70.60
29825;BME280;16713;52.916;12.834;2023-02-28T09:09:51;102691.56;;;0.85;71.28
29825;BME280;16713;52.916;12.834;2023-02-28T09:12:21;102691.56;;;0.85;69.54
29825;BME280;16713;52.916;12.834;2023-02-28T09:14:48;102690.47;;;0.86;69.45
29825;BME280;16713;52.916;12.834;2023-02-28T09:17:14;102689.84;;;0.96;70.52
29825;BME280;16713;52.916;12.834;2023-02-28T09:19:41;102691.25;;;0.98;69.90
29825;BME280;16713;52.916;12.834;2023-02-28T09:22:09;102693.22;;;1.03;70.59
29825;BME280;16713;52.916;12.834;2023-02-28T09:24:36;102693.91;;;1.10;70.14
29825;BME280;16713;52.916;12.834;2023-02-28T09:27:03;102692.94;;;1.32;70.12
29825;BME280;16713;52.916;12.834;2023-02-28T09:29:31;102696.63;;;1.26;69.63
29825;BME280;16713;52.916;12.834;2023-02-28T09:31:57;102697.13;;;1.23;68.37
29825;BME280;16713;52.916;12.834;2023-02-28T09:34:25;102688.69;;;1.36;68.45
29825;BME280;16713;52.916;12.834;2023-02-28T09:36:52;102698.38;;;1.49;68.25
29825;BME280;16713;52.916;12.834;2023-02-28T09:39:21;102701.41;;;1.52;68.57
29825;BME280;16713;52.916;12.834;2023-02-28T09:41:49;102694.38;;;1.51;67.87
29825;BME280;16713;52.916;12.834;2023-02-28T09:46:48;102697.06;;;1.68;67.91
29825;BME280;16713;52.916;12.834;2023-02-28T09:49:19;102696.31;;;1.72;68.26
29825;BME280;16713;52.916;12.834;2023-02-28T09:51:51;102694.09;;;1.69;67.46
29825;BME280;16713;52.916;12.834;2023-02-28T09:54:20;102702.28;;;1.74;67.59
29825;BME280;16713;52.916;12.834;2023-02-28T09:56:56;102698.03;;;1.78;65.89
29825;BME280;16713;52.916;12.834;2023-02-28T10:10:10;102713.19;;;1.96;64.55
29825;BME280;16713;52.916;12.834;2023-02-28T10:12:43;102715.56;;;1.92;63.23
29825;BME280;16713;52.916;12.834;2023-02-28T10:15:14;102718.66;;;2.18;62.03
29825;BME280;16713;52.916;12.834;2023-02-28T10:17:42;102714.91;;;2.19;61.10
29825;BME280;16713;52.916;12.834;2023-02-28T10:20:21;102721.28;;;2.13;60.67
29825;BME280;16713;52.916;12.834;2023-02-28T10:25:20;102726.59;;;2.02;61.17
29825;BME280;16713;52.916;12.834;2023-02-28T10:27:48;102725.09;;;2.12;61.97
29825;BME280;16713;52.916;12.834;2023-02-28T10:30:15;102724.84;;;2.13;61.44
29825;BME280;16713;52.916;12.834;2023-02-28T10:32:44;102724.59;;;2.15;61.75
29825;BME280;16713;52.916;12.834;2023-02-28T10:35:15;102728.81;;;2.27;60.83
29825;BME280;16713;52.916;12.834;2023-02-28T10:37:42;102724.47;;;2.26;60.79
29825;BME280;16713;52.916;12.834;2023-02-28T10:40:25;102723.97;;;2.29;60.55
29825;BME280;16713;52.916;12.834;2023-02-28T10:43:01;102728.63;;;2.34;60.70
29825;BME280;16713;52.916;12.834;2023-02-28T10:45:32;102720.84;;;2.37;60.14
29825;BME280;16713;52.916;12.834;2023-02-28T10:48:04;102727.91;;;2.38;59.81
29825;BME280;16713;52.916;12.834;2023-02-28T10:50:37;102728.66;;;2.55;60.38
29825;BME280;16713;52.916;12.834;2023-02-28T10:53:13;102721.91;;;2.58;59.33
29825;BME280;16713;52.916;12.834;2023-02-28T10:55:42;102719.78;;;2.60;58.76
29825;BME280;16713;52.916;12.834;2023-02-28T10:58:22;102726.81;;;2.61;58.42
29825;BME280;16713;52.916;12.834;2023-02-28T11:00:49;102728.31;;;2.68;58.90
29825;BME280;16713;52.916;12.834;2023-02-28T11:03:24;102722.13;;;2.73;59.20
29825;BME280;16713;52.916;12.834;2023-02-28T11:05:51;102726.00;;;2.82;58.14
29825;BME280;16713;52.916;12.834;2023-02-28T11:08:17;102724.19;;;2.87;57.87
29825;BME280;16713;52.916;12.834;2023-02-28T11:10:45;102724.69;;;2.84;56.88
29825;BME280;16713;52.916;12.834;2023-02-28T11:13:19;102720.44;;;2.93;57.66
29825;BME280;16713;52.916;12.834;2023-02-28T11:15:51;102716.50;;;2.79;56.45
29825;BME280;16713;52.916;12.834;2023-02-28T11:18:20;102715.47;;;2.85;57.59
29825;BME280;16713;52.916;12.834;2023-02-28T11:20:49;102708.78;;;2.93;56.40
29825;BME280;16713;52.916;12.834;2023-02-28T11:23:16;102702.25;;;2.89;57.47
29825;BME280;16713;52.916;12.834;2023-02-28T11:25:46;102699.03;;;2.92;57.71
29825;BME280;16713;52.916;12.834;2023-02-28T11:33:41;102697.34;;;2.86;55.41
29825;BME280;16713;52.916;12.834;2023-02-28T11:36:28;102696.00;;;2.88;55.48
29825;BME280;16713;52.916;12.834;2023-02-28T11:38:56;102692.44;;;2.83;55.71
29825;BME280;16713;52.916;12.834;2023-02-28T11:41:37;102693.97;;;3.00;55.12
29825;BME280;16713;52.916;12.834;2023-02-28T11:46:56;102698.47;;;2.90;54.76
29825;BME280;16713;52.916;12.834;2023-02-28T11:52:21;102698.06;;;3.03;54.14
29825;BME280;16713;52.916;12.834;2023-02-28T11:57:30;102683.91;;;2.96;54.12
29825;BME280;16713;52.916;12.834;2023-02-28T12:08:23;102694.28;;;3.04;52.93
29825;BME280;16713;52.916;12.834;2023-02-28T12:10:55;102698.06;;;3.03;53.43
29825;BME280;16713;52.916;12.834;2023-02-28T12:13:34;102700.19;;;2.96;54.20
29825;BME280;16713;52.916;12.834;2023-02-28T12:21:37;102697.25;;;3.02;53.25
29825;BME280;16713;52.916;12.834;2023-02-28T12:26:44;102675.06;;;3.05;52.96
29825;BME280;16713;52.916;12.834;2023-02-28T12:29:19;102679.53;;;2.95;53.58
29825;BME280;16713;52.916;12.834;2023-02-28T12:31:49;102670.91;;;2.98;54.21
29825;BME280;16713;52.916;12.834;2023-02-28T12:34:18;102664.22;;;3.05;53.54
29825;BME280;16713;52.916;12.834;2023-02-28T12:36:46;102661.97;;;2.97;53.97
29825;BME280;16713;52.916;12.834;2023-02-28T12:39:26;102666.88;;;3.00;53.44
29825;BME280;16713;52.916;12.834;2023-02-28T12:42:11;102664.75;;;3.07;52.82
29825;BME280;16713;52.916;12.834;2023-02-28T12:44:49;102662.41;;;3.16;52.81
29825;BME280;16713;52.916;12.834;2023-02-28T12:47:18;102655.22;;;3.26;54.00
29825;BME280;16713;52.916;12.834;2023-02-28T12:49:55;102658.03;;;3.10;53.96
29825;BME280;16713;52.916;12.834;2023-02-28T12:55:01;102653.75;;;3.19;53.92
29825;BME280;16713;52.916;12.834;2023-02-28T13:00:01;102647.88;;;3.27;55.36
29825;BME280;16713;52.916;12.834;2023-02-28T13:10:37;102643.94;;;3.44;53.76
29825;BME280;16713;52.916;12.834;2023-02-28T13:13:04;102643.91;;;3.39;53.72
29825;BME280;16713;52.916;12.834;2023-02-28T13:15:30;102645.59;;;3.45;52.83
29825;BME280;16713;52.916;12.834;2023-02-28T13:18:01;102649.53;;;3.33;53.49
29825;BME280;16713;52.916;12.834;2023-02-28T13:20:34;102647.53;;;3.50;52.21
29825;BME280;16713;52.916;12.834;2023-02-28T13:23:01;102642.06;;;3.45;52.40
29825;BME280;16713;52.916;12.834;2023-02-28T13:28:08;102629.09;;;3.52;52.25
29825;BME280;16713;52.916;12.834;2023-02-28T13:36:40;102635.06;;;3.54;51.72
29825;BME280;16713;52.916;12.834;2023-02-28T13:38:42;102635.28;;;3.47;52.20
29825;BME280;16713;52.916;12.834;2023-02-28T13:44:11;102637.69;;;3.39;51.28
29825;BME280;16713;52.916;12.834;2023-02-28T13:51:46;102626.75;;;3.29;51.47
29825;BME280;16713;52.916;12.834;2023-02-28T13:57:04;102630.25;;;3.24;53.04
29825;BME280;16713;52.916;12.834;2023-02-28T13:59:42;102613.94;;;3.19;53.09
29825;BME280;16713;52.916;12.834;2023-02-28T14:05:01;102612.31;;;3.23;52.47
29825;BME280;16713;52.916;12.834;2023-02-28T14:07:32;102621.22;;;3.19;51.75
29825;BME280;16713;52.916;12.834;2023-02-28T14:10:03;102621.81;;;3.21;52.31
29825;BME280;16713;52.916;12.834;2023-02-28T14:12:51;102621.50;;;3.17;52.80
29825;BME280;16713;52.916;12.834;2023-02-28T14:17:52;102629.72;;;3.27;51.54
29825;BME280;16713;52.916;12.834;2023-02-28T14:20:19;102632.47;;;3.32;52.38
29825;BME280;16713;52.916;12.834;2023-02-28T14:23:04;102622.22;;;3.39;51.61
29825;BME280;16713;52.916;12.834;2023-02-28T14:25:36;102629.81;;;3.37;51.72
29825;BME280;16713;52.916;12.834;2023-02-28T14:28:27;102629.31;;;3.45;52.01
29825;BME280;16713;52.916;12.834;2023-02-28T14:31:09;102635.63;;;3.56;51.79
29825;BME280;16713;52.916;12.834;2023-02-28T14:36:30;102624.16;;;3.44;51.60
29825;BME280;16713;52.916;12.834;2023-02-28T14:38:59;102621.88;;;3.31;51.34
29825;BME280;16713;52.916;12.834;2023-02-28T14:41:31;102620.59;;;3.38;52.30
29825;BME280;16713;52.916;12.834;2023-02-28T14:44:01;102617.66;;;3.45;51.32
29825;BME280;16713;52.916;12.834;2023-02-28T14:46:32;102619.34;;;3.56;50.77
29825;BME280;16713;52.916;12.834;2023-02-28T14:49:03;102619.84;;;3.48;50.70
29825;BME280;16713;52.916;12.834;2023-02-28T14:51:30;102616.00;;;3.39;50.04
29825;BME280;16713;52.916;12.834;2023-02-28T14:53:57;102615.75;;;3.45;48.99
29825;BME280;16713;52.916;12.834;2023-02-28T14:56:29;102616.88;;;3.49;50.46
29825;BME280;16713;52.916;12.834;2023-02-28T14:58:57;102618.22;;;3.47;51.37